Airfield :
LOGIN :

Register | Disclaimer

   EN    FR    IT 

 










Legend :    VFR   Marginal VFR   IFR   Intensive IFR   Very Intensive IFR
Visi :
Ceiling :
>= 8 km
>= 3000ft
5 to 8 km
1000 to 3000 ft
1500m to 5 km
500 to 1000 ft
800 to 1500m
200 to 500 ft
< 800m
< 200 ft
Symbols :   Thunderstorms  Fog  Heavy snow  Heavy precipitations  Wind > 20 kt
SIGMETs :     Misc.  Thunderstorms  Icing  Turbulence  Mountain Waves  Volcanic Ashes







- Airport Elevation : 776 ft
- IATA code : RMS


ETAR - Ramstein Air Base

CURRENT METAR :
  • 281258Z 28017KT 9999 SCT046 SCT160 23/11 A2998 RMK AO2A SLP149 T02260112 $

EXPIRED METARs :
  • 281244Z 28016G20KT 9999 SCT030 SCT140 22/11 A2998 RMK AO2A WSHFT 40 SLP150
  • 281213Z 27015G21KT 9999 SCT037 SCT210 21/11 A2999 RMK SLP153
  • 281158Z 26014G17KT 9999 SCT037 SCT170 21/12 A2998 RMK AO2A SLP150 70016 T02050119 10208 20147 50002 $
  • 281110Z 25011KT 9999 BKN034 BKN190 20/12 A2998 RMK SLP150
  • 281058Z 24011KT 9999 SCT030 SCT170 21/13 A2998 RMK AO2A SLP149 T02080129 $
  • 280958Z 26010KT 9999 SCT028 SCT160 BKN200 20/13 A2998 RMK AO2A SLP149 T01990132 $

TAF TAF ETAR
Valid from the 28 at 10:00 until the 29 at 16:00 UTC


281000Z 2810/2916 24012KT 9999 SCT060 SCT180 QNH2994INS
TEMPO 2811/2816 24015G20KT
BECMG 2818/2819 20006KT 9999 FEW075 SCT250 QNH2998INS
TEMPO 2901/2906 6000 BR
BECMG 2908/2909 23012KT 9999 SCT030 BKN200 QNH2999INS TX22/2812Z TN13/2904Z
No reported NOTAMs for that airfield.



MET'MAP, your aeronautical weather chart ! - Copyright ORBIFLY December 2007 - Disclaimer

ORBIFLY MET'MAP TEAM :

Programming & Development : Alexandra Zaïnal
Concept & Development : Baudouin d'Aumeries
Co-Development & Prog : Marc-Olivier Méhu
Technical & hardware support : Manuel Goepfert

Contact : metmap@orbifly.com




SOURCES & CREDITS :

   NOAA